createdAt,value
2022-09-06T00:01:07.705Z,4.30
2022-09-06T00:03:34.982Z,3.90
2022-09-06T00:06:06.525Z,3.60
2022-09-06T00:08:33.624Z,3.22
2022-09-06T00:11:01.444Z,3.25
2022-09-06T00:13:29.893Z,2.53
2022-09-06T00:15:57.289Z,3.95
2022-09-06T00:18:24.671Z,5.47
2022-09-06T00:20:52.967Z,7.28
2022-09-06T00:23:20.283Z,6.72
2022-09-06T00:25:47.603Z,4.57
2022-09-06T00:28:16.614Z,4.57
2022-09-06T00:30:44.060Z,4.30
2022-09-06T00:33:11.253Z,5.00
2022-09-06T00:35:38.560Z,5.65
2022-09-06T00:38:05.718Z,5.15
2022-09-06T00:40:35.725Z,7.22
2022-09-06T00:43:03.136Z,7.03
2022-09-06T00:45:31.367Z,6.45
2022-09-06T00:47:59.990Z,9.05
2022-09-06T00:50:29.372Z,6.40
2022-09-06T00:52:56.487Z,5.60
2022-09-06T00:55:25.418Z,5.10
2022-09-06T00:57:53.283Z,5.20
2022-09-06T01:00:21.956Z,7.75
2022-09-06T01:02:49.858Z,4.50
2022-09-06T01:05:21.325Z,7.30
2022-09-06T01:08:03.780Z,4.88
2022-09-06T01:10:34.221Z,8.38
2022-09-06T01:13:16.660Z,6.03
2022-09-06T01:16:01.054Z,6.28
2022-09-06T01:18:31.012Z,8.52
2022-09-06T01:20:58.192Z,9.88
2022-09-06T01:23:25.347Z,5.32
2022-09-06T01:26:01.829Z,10.98
2022-09-06T01:28:41.304Z,5.93
2022-09-06T01:31:33.132Z,7.32
2022-09-06T01:34:06.349Z,6.55
2022-09-06T01:36:45.756Z,9.40
2022-09-06T01:39:35.067Z,7.50
2022-09-06T01:42:08.475Z,9.57
2022-09-06T01:44:36.703Z,6.03
2022-09-06T01:47:18.251Z,6.80
2022-09-06T01:49:52.318Z,6.53
2022-09-06T01:52:27.272Z,6.75
2022-09-06T01:54:54.598Z,8.38
2022-09-06T01:57:40.867Z,5.85
2022-09-06T02:00:11.428Z,9.57
2022-09-06T02:02:48.022Z,6.90
2022-09-06T02:05:33.356Z,8.43
2022-09-06T02:08:05.099Z,10.88
2022-09-06T02:10:38.669Z,12.05
2022-09-06T02:13:07.394Z,7.32
2022-09-06T02:15:37.674Z,7.20
2022-09-06T02:18:11.486Z,10.32
2022-09-06T02:20:42.293Z,9.88
2022-09-06T02:23:10.321Z,12.40
2022-09-06T02:25:46.264Z,9.93
2022-09-06T02:28:14.176Z,12.25
2022-09-06T02:30:44.096Z,7.97
2022-09-06T02:33:14.691Z,13.40
2022-09-06T02:35:50.206Z,10.63
2022-09-06T02:38:18.612Z,9.57
2022-09-06T02:40:46.896Z,10.55
2022-09-06T02:43:14.031Z,9.60
2022-09-06T02:45:41.322Z,11.63
2022-09-06T02:48:08.657Z,12.27
2022-09-06T02:50:37.102Z,11.63
2022-09-06T02:53:10.847Z,13.40
2022-09-06T02:55:38.335Z,9.57
2022-09-06T02:58:07.553Z,16.73
2022-09-06T03:00:34.878Z,14.05
2022-09-06T03:03:02.313Z,19.30
2022-09-06T03:05:29.461Z,16.10
2022-09-06T03:07:56.793Z,18.63
2022-09-06T03:10:25.047Z,22.70
2022-09-06T03:12:52.549Z,17.33
2022-09-06T03:15:19.742Z,20.65
2022-09-06T03:17:47.480Z,16.58
2022-09-06T03:20:14.797Z,22.02
2022-09-06T03:22:42.560Z,19.00
2022-09-06T03:25:10.541Z,18.35
2022-09-06T03:27:38.389Z,20.60
2022-09-06T03:30:06.824Z,21.75
2022-09-06T03:32:34.070Z,19.50
2022-09-06T03:35:01.575Z,23.13
2022-09-06T03:37:28.996Z,25.02
2022-09-06T03:39:56.349Z,18.85
2022-09-06T03:42:26.100Z,21.10
2022-09-06T03:44:53.819Z,27.83
2022-09-06T03:47:21.611Z,22.05
2022-09-06T03:49:48.764Z,28.63
2022-09-06T03:52:16.232Z,27.77
2022-09-06T03:54:43.658Z,24.95
2022-09-06T03:57:11.056Z,25.35
2022-09-06T03:59:38.513Z,23.55
2022-09-06T04:02:06.607Z,20.13
2022-09-06T04:04:34.887Z,19.52
2022-09-06T04:07:02.174Z,21.52
2022-09-06T04:09:29.486Z,18.13
2022-09-06T04:11:56.753Z,19.98
2022-09-06T04:14:24.194Z,22.83
2022-09-06T04:16:52.038Z,20.20
2022-09-06T04:19:19.558Z,23.42
2022-09-06T04:21:46.841Z,21.38
2022-09-06T04:24:14.213Z,21.42
2022-09-06T04:26:41.326Z,27.25
2022-09-06T04:29:08.698Z,23.05
2022-09-06T04:31:36.251Z,22.50
2022-09-06T04:34:04.686Z,20.08
2022-09-06T04:36:31.923Z,24.50
2022-09-06T04:39:00.423Z,23.95
2022-09-06T04:41:27.866Z,24.63
2022-09-06T04:43:55.062Z,22.15
2022-09-06T04:46:24.983Z,18.10
2022-09-06T04:48:53.037Z,18.65
2022-09-06T04:51:20.686Z,18.42
2022-09-06T04:53:48.397Z,19.27
2022-09-06T04:56:20.047Z,17.58
2022-09-06T04:58:47.800Z,17.70
2022-09-06T05:01:15.736Z,18.88
2022-09-06T05:03:43.036Z,22.40
2022-09-06T05:06:28.430Z,19.90
2022-09-06T05:08:55.570Z,21.05
2022-09-06T05:11:23.121Z,18.90
2022-09-06T05:13:50.398Z,19.63
2022-09-06T05:16:18.870Z,24.95
2022-09-06T05:18:46.064Z,20.90
2022-09-06T05:21:13.436Z,26.38
2022-09-06T05:23:40.649Z,23.27
2022-09-06T05:26:07.914Z,29.83
2022-09-06T05:28:35.324Z,25.73
2022-09-06T05:31:08.327Z,27.25
2022-09-06T05:33:35.957Z,25.02
2022-09-06T05:36:04.302Z,24.83
2022-09-06T05:38:31.885Z,23.00
2022-09-06T05:40:59.659Z,29.20
2022-09-06T05:43:27.017Z,21.25
2022-09-06T05:45:55.292Z,25.05
2022-09-06T05:48:22.517Z,26.40
2022-09-06T05:50:59.790Z,28.25
2022-09-06T05:53:27.146Z,29.38
2022-09-06T05:55:54.635Z,29.27
2022-09-06T05:58:21.799Z,32.72
2022-09-06T06:00:50.625Z,28.35
2022-09-06T06:03:17.822Z,27.30
2022-09-06T06:05:48.376Z,35.35
2022-09-06T06:08:15.666Z,28.80
2022-09-06T06:10:43.058Z,30.38
2022-09-06T06:13:10.327Z,27.88
2022-09-06T06:15:37.722Z,33.92
2022-09-06T06:18:05.141Z,39.03
2022-09-06T06:20:33.494Z,35.75
2022-09-06T06:23:00.720Z,44.58
2022-09-06T06:25:29.064Z,37.58
2022-09-06T06:27:56.328Z,48.30
2022-09-06T06:30:23.599Z,39.13
2022-09-06T06:32:50.930Z,40.45
2022-09-06T06:35:18.002Z,38.35
2022-09-06T06:37:45.852Z,38.70
2022-09-06T06:40:13.972Z,34.03
2022-09-06T06:42:43.970Z,41.92
2022-09-06T06:45:12.553Z,30.98
2022-09-06T06:47:39.702Z,30.48
2022-09-06T06:50:07.325Z,34.83
2022-09-06T06:52:35.652Z,33.03
2022-09-06T06:55:02.819Z,39.75
2022-09-06T06:57:30.296Z,31.77
2022-09-06T06:59:57.429Z,33.22
2022-09-06T07:02:24.598Z,25.23
2022-09-06T07:04:54.097Z,22.65
2022-09-06T07:07:38.164Z,23.90
2022-09-06T07:12:57.022Z,18.20
2022-09-06T07:15:24.268Z,19.88
2022-09-06T07:17:54.429Z,20.42
2022-09-06T07:20:21.593Z,14.90
2022-09-06T07:25:46.012Z,17.30
2022-09-06T07:28:13.297Z,16.33
2022-09-06T07:30:40.428Z,19.88
2022-09-06T07:33:08.797Z,19.15
2022-09-06T07:35:36.209Z,15.27
2022-09-06T07:38:04.754Z,17.67
2022-09-06T07:40:33.046Z,16.92
2022-09-06T07:43:00.606Z,13.70
2022-09-06T07:45:27.801Z,13.50
2022-09-06T07:47:59.678Z,17.52
2022-09-06T07:50:47.428Z,13.80
2022-09-06T07:53:25.975Z,12.45
2022-09-06T07:55:57.715Z,12.43
2022-09-06T07:58:25.144Z,13.95
2022-09-06T08:00:54.695Z,13.98
2022-09-06T08:03:22.037Z,15.02
2022-09-06T08:11:25.802Z,13.68
2022-09-06T08:13:57.700Z,14.48
2022-09-06T08:16:26.052Z,12.82
2022-09-06T08:18:54.555Z,14.23
2022-09-06T08:21:23.651Z,11.93
2022-09-06T08:23:58.540Z,14.48
2022-09-06T08:26:26.533Z,14.95
2022-09-06T08:28:55.305Z,15.50
2022-09-06T08:31:22.885Z,19.23
2022-09-06T08:33:50.502Z,12.68
2022-09-06T08:36:17.909Z,12.23
2022-09-06T08:38:45.856Z,10.45
2022-09-06T08:41:25.965Z,9.80
2022-09-06T08:46:56.985Z,10.90
2022-09-06T08:49:26.286Z,16.40
2022-09-06T08:52:01.677Z,11.45
2022-09-06T08:54:30.871Z,8.20
2022-09-06T08:57:05.500Z,12.15
2022-09-06T08:59:37.163Z,9.98
2022-09-06T09:02:15.473Z,9.98
2022-09-06T09:05:04.349Z,11.32
2022-09-06T09:07:41.258Z,11.65
2022-09-06T09:10:15.073Z,10.88
2022-09-06T09:12:46.661Z,13.77
2022-09-06T09:15:17.217Z,14.95
2022-09-06T09:17:45.029Z,14.07
2022-09-06T09:20:12.341Z,15.45
2022-09-06T09:22:40.567Z,12.10
2022-09-06T09:25:08.552Z,11.15
2022-09-06T09:27:37.192Z,14.52
2022-09-06T09:32:53.975Z,14.13
2022-09-06T09:35:48.831Z,14.27
2022-09-06T09:38:24.974Z,12.73
2022-09-06T09:40:56.372Z,13.02
2022-09-06T09:43:35.618Z,8.90
2022-09-06T09:46:10.938Z,13.65
2022-09-06T09:48:38.712Z,11.73
2022-09-06T09:51:27.735Z,10.35
2022-09-06T09:53:56.967Z,10.98
2022-09-06T09:56:29.279Z,14.52
2022-09-06T09:58:58.681Z,9.77
2022-09-06T10:01:35.951Z,10.10
2022-09-06T10:09:35.859Z,9.32
2022-09-06T10:12:03.289Z,9.00
2022-09-06T10:14:57.257Z,8.43
2022-09-06T10:17:27.872Z,11.50
2022-09-06T10:19:55.156Z,8.45
2022-09-06T10:22:29.721Z,10.73
2022-09-06T10:25:05.947Z,8.27
2022-09-06T10:27:33.315Z,11.95
2022-09-06T10:30:08.262Z,6.85
2022-09-06T10:32:42.887Z,6.95
2022-09-06T10:35:21.206Z,6.05
2022-09-06T10:37:48.553Z,9.75
2022-09-06T10:40:23.104Z,11.02
2022-09-06T10:42:54.257Z,8.85
2022-09-06T10:45:37.108Z,9.55
2022-09-06T10:48:24.757Z,7.70
2022-09-06T10:51:13.723Z,10.65
2022-09-06T10:54:02.289Z,14.05
2022-09-06T10:56:49.713Z,9.55
2022-09-06T10:59:39.183Z,11.90
2022-09-06T11:02:06.728Z,10.20
2022-09-06T11:07:25.850Z,11.15
2022-09-06T11:09:57.324Z,10.43
2022-09-06T11:12:30.284Z,9.18
2022-09-06T11:14:57.561Z,11.45
2022-09-06T11:17:33.238Z,11.38
2022-09-06T11:20:06.079Z,13.65
2022-09-06T11:22:59.175Z,14.40
2022-09-06T11:25:51.685Z,12.50
2022-09-06T11:28:29.566Z,14.77
2022-09-06T11:30:58.400Z,15.25
2022-09-06T11:33:28.716Z,10.15
2022-09-06T11:36:16.169Z,13.68
2022-09-06T11:38:43.605Z,12.43
2022-09-06T11:41:16.844Z,13.13
2022-09-06T11:43:51.146Z,10.43
2022-09-06T11:46:33.882Z,11.52
2022-09-06T11:49:07.394Z,10.13
2022-09-06T11:51:44.624Z,7.20
2022-09-06T11:54:23.283Z,6.82
2022-09-06T11:56:53.494Z,6.13
2022-09-06T11:59:21.498Z,11.80
2022-09-06T12:02:06.014Z,7.30
2022-09-06T12:05:03.957Z,6.95
2022-09-06T12:07:32.820Z,13.13
2022-09-06T12:10:23.341Z,8.55
2022-09-06T12:12:52.601Z,6.05
2022-09-06T12:15:38.889Z,10.15
2022-09-06T12:18:06.133Z,9.82
2022-09-06T12:20:52.145Z,7.75
2022-09-06T12:23:37.716Z,6.00
2022-09-06T12:26:08.939Z,7.18
2022-09-06T12:28:39.366Z,5.63
2022-09-06T12:31:24.799Z,6.65
2022-09-06T12:33:54.761Z,4.75
2022-09-06T12:38:56.949Z,4.65
2022-09-06T12:41:25.435Z,6.72
2022-09-06T12:43:52.892Z,3.20
2022-09-06T12:46:20.327Z,6.45
2022-09-06T12:49:00.182Z,3.92
2022-09-06T12:51:28.646Z,6.95
2022-09-06T12:53:58.677Z,7.68
2022-09-06T12:56:26.964Z,3.90
2022-09-06T12:59:10.399Z,5.85
2022-09-06T13:01:41.295Z,3.75
2022-09-06T13:04:16.365Z,5.53
2022-09-06T13:06:48.223Z,4.47
2022-09-06T13:09:18.558Z,4.60
2022-09-06T13:11:47.678Z,5.88
2022-09-06T13:14:20.163Z,4.63
2022-09-06T13:16:48.904Z,2.90
2022-09-06T13:19:16.254Z,5.38
2022-09-06T13:21:44.578Z,9.38
2022-09-06T13:24:23.463Z,6.07
2022-09-06T13:26:51.237Z,4.33
2022-09-06T13:29:18.674Z,7.22
2022-09-06T13:31:48.954Z,4.15
2022-09-06T13:34:32.563Z,3.92
2022-09-06T13:37:11.649Z,4.75
2022-09-06T13:39:44.123Z,5.43
2022-09-06T13:42:24.488Z,3.50
2022-09-06T13:44:51.673Z,2.42
2022-09-06T13:47:18.913Z,3.95
2022-09-06T13:49:47.211Z,5.28
2022-09-06T13:52:15.378Z,6.22
2022-09-06T13:54:42.609Z,3.38
2022-09-06T13:57:09.994Z,10.27
2022-09-06T13:59:37.450Z,5.78
2022-09-06T14:02:07.020Z,9.77
2022-09-06T14:04:35.628Z,2.00
2022-09-06T14:07:03.674Z,4.93
2022-09-06T14:09:31.201Z,3.38
2022-09-06T14:11:58.497Z,6.88
2022-09-06T14:14:25.839Z,7.43
2022-09-06T14:16:54.116Z,3.22
2022-09-06T14:19:21.467Z,6.47
2022-09-06T14:21:48.584Z,2.92
2022-09-06T14:24:16.125Z,5.00
2022-09-06T14:26:43.267Z,5.75
2022-09-06T14:29:10.543Z,3.05
2022-09-06T14:31:39.571Z,7.00
2022-09-06T14:34:06.743Z,3.57
2022-09-06T14:36:34.654Z,5.55
2022-09-06T14:39:02.678Z,6.10
2022-09-06T14:41:30.209Z,4.90
2022-09-06T14:43:58.162Z,3.78
2022-09-06T14:46:26.329Z,6.60
2022-09-06T14:48:57.485Z,4.13
2022-09-06T14:51:24.870Z,3.20
2022-09-06T14:53:54.269Z,4.43
2022-09-06T14:56:22.150Z,7.03
2022-09-06T14:58:49.535Z,3.90
2022-09-06T15:01:18.034Z,4.57
2022-09-06T15:03:48.482Z,5.07
2022-09-06T15:06:16.601Z,3.30
2022-09-06T15:08:44.015Z,3.63
2022-09-06T15:11:12.823Z,4.88
2022-09-06T15:13:40.552Z,4.70
2022-09-06T15:16:08.634Z,5.70
2022-09-06T15:18:36.046Z,4.97
2022-09-06T15:21:10.383Z,2.60
2022-09-06T15:23:37.763Z,6.70
2022-09-06T15:26:07.306Z,7.80
2022-09-06T15:28:40.895Z,5.47
2022-09-06T15:31:08.805Z,6.35
2022-09-06T15:33:36.862Z,5.35
2022-09-06T15:36:06.448Z,8.07
2022-09-06T15:38:35.753Z,7.35
2022-09-06T15:41:09.804Z,3.10
2022-09-06T15:43:40.631Z,5.47
2022-09-06T15:46:08.142Z,3.92
2022-09-06T15:48:43.006Z,3.88
2022-09-06T15:51:11.352Z,4.35
2022-09-06T15:53:39.085Z,5.75
2022-09-06T15:56:08.785Z,10.63
2022-09-06T15:58:36.542Z,7.45
2022-09-06T16:01:17.217Z,6.20
2022-09-06T16:03:45.494Z,4.78
2022-09-06T16:06:29.355Z,6.40
2022-09-06T16:09:00.976Z,4.30
2022-09-06T16:11:29.549Z,5.80
2022-09-06T16:13:57.181Z,6.50
2022-09-06T16:16:24.693Z,4.18
2022-09-06T16:18:52.521Z,5.18
2022-09-06T16:21:24.518Z,4.03
2022-09-06T16:23:53.615Z,4.50
2022-09-06T16:26:21.963Z,8.00
2022-09-06T16:28:49.874Z,5.57
2022-09-06T16:31:17.314Z,6.32
2022-09-06T16:33:45.835Z,4.18
2022-09-06T16:36:14.500Z,5.55
2022-09-06T16:38:42.295Z,4.55
2022-09-06T16:41:11.400Z,4.07
2022-09-06T16:43:38.642Z,3.72
2022-09-06T16:46:05.863Z,4.70
2022-09-06T16:48:33.672Z,3.90
2022-09-06T16:51:11.026Z,5.75
2022-09-06T16:53:39.354Z,3.70
2022-09-06T16:56:06.768Z,4.15
2022-09-06T16:58:34.200Z,6.75
2022-09-06T17:01:01.461Z,5.03
2022-09-06T17:03:29.091Z,6.47
2022-09-06T17:05:56.401Z,7.45
2022-09-06T17:08:23.844Z,5.35
2022-09-06T17:10:51.181Z,4.90
2022-09-06T17:13:18.616Z,6.40
2022-09-06T17:16:11.646Z,6.50
2022-09-06T17:18:39.303Z,4.00
2022-09-06T17:21:07.566Z,5.07
2022-09-06T17:23:35.579Z,5.55
2022-09-06T17:26:03.296Z,2.78
2022-09-06T17:28:33.196Z,7.03
2022-09-06T17:31:04.023Z,4.78
2022-09-06T17:33:32.255Z,3.67
2022-09-06T17:36:13.104Z,3.85
2022-09-06T17:38:42.770Z,5.55
2022-09-06T17:41:31.387Z,5.22
2022-09-06T17:43:58.736Z,5.43
2022-09-06T17:46:28.915Z,6.10
2022-09-06T17:48:57.332Z,7.40
2022-09-06T17:51:25.685Z,7.28
2022-09-06T17:53:53.684Z,3.92
2022-09-06T17:56:21.775Z,8.05
2022-09-06T17:58:54.018Z,3.45
2022-09-06T18:01:21.852Z,10.35
2022-09-06T18:03:49.077Z,9.32
2022-09-06T18:06:20.053Z,2.65
2022-09-06T18:08:50.445Z,6.65
2022-09-06T18:11:19.359Z,6.15
2022-09-06T18:13:48.272Z,7.18
2022-09-06T18:16:15.637Z,8.05
2022-09-06T18:18:42.892Z,3.45
2022-09-06T18:21:10.722Z,3.15
2022-09-06T18:23:38.334Z,4.38
2022-09-06T18:26:06.730Z,8.10
2022-09-06T18:28:35.396Z,5.53
2022-09-06T18:31:07.394Z,3.72
2022-09-06T18:33:35.506Z,5.18
2022-09-06T18:36:03.630Z,9.48
2022-09-06T18:38:31.068Z,7.10
2022-09-06T18:40:59.291Z,6.55
2022-09-06T18:43:34.177Z,3.45
2022-09-06T18:46:05.823Z,3.42
2022-09-06T18:48:33.977Z,5.15
2022-09-06T18:51:19.164Z,4.47
2022-09-06T18:53:47.331Z,6.75
2022-09-06T18:56:15.829Z,5.43
2022-09-06T18:58:43.618Z,8.35
2022-09-06T19:01:16.360Z,6.78
2022-09-06T19:03:44.362Z,5.03
2022-09-06T19:06:12.976Z,6.32
2022-09-06T19:08:41.007Z,9.73
2022-09-06T19:11:17.091Z,5.05
2022-09-06T19:13:45.415Z,11.15
2022-09-06T19:16:14.005Z,7.13
2022-09-06T19:18:41.777Z,5.13
2022-09-06T19:21:09.342Z,6.18
2022-09-06T19:23:38.365Z,5.88
2022-09-06T19:26:07.503Z,6.97
2022-09-06T19:28:35.397Z,4.18
2022-09-06T19:31:07.444Z,7.55
2022-09-06T19:33:36.248Z,5.85
2022-09-06T19:36:12.567Z,4.40
2022-09-06T19:39:02.657Z,5.38
2022-09-06T19:41:28.192Z,7.55
2022-09-06T19:43:56.251Z,8.02
2022-09-06T19:46:23.940Z,8.90
2022-09-06T19:48:53.626Z,8.90
2022-09-06T19:51:23.221Z,8.35
2022-09-06T19:53:53.169Z,6.38
2022-09-06T19:56:26.311Z,10.50
2022-09-06T19:58:58.365Z,7.38
2022-09-06T20:01:29.032Z,5.00
2022-09-06T20:06:25.059Z,7.20
2022-09-06T20:08:54.131Z,7.53
2022-09-06T20:11:21.990Z,9.48
2022-09-06T20:13:49.435Z,6.47
2022-09-06T20:16:19.262Z,7.75
2022-09-06T20:18:47.822Z,8.05
2022-09-06T20:21:15.199Z,8.63
2022-09-06T20:23:42.404Z,7.82
2022-09-06T20:26:10.918Z,6.15
2022-09-06T20:28:38.219Z,6.25
2022-09-06T20:31:06.845Z,6.25
2022-09-06T20:33:34.618Z,7.30
2022-09-06T20:36:03.213Z,6.28
2022-09-06T20:38:31.720Z,9.85
2022-09-06T20:41:01.647Z,8.88
2022-09-06T20:43:29.078Z,4.33
2022-09-06T20:45:57.316Z,7.70
2022-09-06T20:48:24.713Z,11.85
2022-09-06T20:50:58.743Z,30.02
2022-09-06T20:53:26.160Z,16.83
2022-09-06T20:55:57.504Z,11.65
2022-09-06T20:58:25.073Z,14.23
2022-09-06T21:00:52.462Z,14.02
2022-09-06T21:03:20.277Z,13.95
2022-09-06T21:05:47.609Z,15.45
2022-09-06T21:08:14.971Z,16.33
2022-09-06T21:10:42.863Z,12.70
2022-09-06T21:13:10.825Z,12.93
2022-09-06T21:15:40.987Z,12.73
2022-09-06T21:18:09.262Z,8.73
2022-09-06T21:20:36.610Z,11.77
2022-09-06T21:23:04.477Z,22.58
2022-09-06T21:25:31.951Z,10.85
2022-09-06T21:27:59.091Z,17.90
2022-09-06T21:30:26.585Z,16.23
2022-09-06T21:32:55.059Z,25.98
2022-09-06T21:35:22.597Z,22.73
2022-09-06T21:37:49.843Z,22.40
2022-09-06T21:40:17.116Z,16.58
2022-09-06T21:42:44.384Z,23.65
2022-09-06T21:45:13.176Z,19.25
2022-09-06T21:47:41.341Z,25.20
2022-09-06T21:50:09.008Z,22.40
2022-09-06T21:52:36.275Z,14.60
2022-09-06T21:55:04.289Z,18.20
2022-09-06T21:57:31.727Z,6.20
2022-09-06T21:59:59.118Z,10.30
2022-09-06T22:02:27.445Z,5.15
2022-09-06T22:04:55.428Z,6.25
2022-09-06T22:07:23.357Z,4.75
2022-09-06T22:09:50.620Z,7.15
2022-09-06T22:12:17.784Z,6.25
2022-09-06T22:14:47.343Z,6.30
2022-09-06T22:17:14.555Z,4.05
2022-09-06T22:19:41.974Z,5.47
2022-09-06T22:22:09.192Z,5.55
2022-09-06T22:24:36.556Z,5.65
2022-09-06T22:27:03.747Z,4.00
2022-09-06T22:29:30.998Z,6.70
2022-09-06T22:31:58.162Z,7.68
2022-09-06T22:34:25.511Z,7.10
2022-09-06T22:36:52.652Z,7.75
2022-09-06T22:39:21.154Z,4.70
2022-09-06T22:41:48.383Z,3.83
2022-09-06T22:44:15.781Z,5.05
2022-09-06T22:46:42.981Z,4.47
2022-09-06T22:49:10.200Z,4.95
2022-09-06T22:51:37.462Z,4.78
2022-09-06T22:54:05.264Z,3.55
2022-09-06T22:56:33.483Z,4.47
2022-09-06T22:59:00.946Z,3.72
2022-09-06T23:01:28.585Z,2.97
2022-09-06T23:03:55.826Z,2.22
2022-09-06T23:06:23.381Z,4.50
2022-09-06T23:08:50.598Z,14.38
2022-09-06T23:11:18.919Z,6.80
2022-09-06T23:13:47.386Z,9.05
2022-09-06T23:16:19.064Z,9.18
2022-09-06T23:18:47.401Z,11.43
2022-09-06T23:21:16.066Z,12.05
2022-09-06T23:23:43.677Z,16.33
2022-09-06T23:26:12.118Z,15.52
2022-09-06T23:28:39.676Z,19.23
2022-09-06T23:31:08.326Z,21.42
2022-09-06T23:33:37.417Z,21.95
2022-09-06T23:36:10.685Z,17.30
2022-09-06T23:38:39.082Z,25.92
2022-09-06T23:41:06.797Z,19.38
2022-09-06T23:43:33.931Z,19.42
2022-09-06T23:46:03.368Z,26.50
2022-09-06T23:48:31.129Z,23.30
2022-09-06T23:51:00.467Z,23.30
2022-09-06T23:53:27.755Z,19.92
2022-09-06T23:55:55.093Z,23.48
2022-09-06T23:58:22.625Z,18.73
